Latest Weather Observations for Jervis Bay Airfield

IDN60801

Issued at 2:04 am EDT Friday 29 January 2021 (issued every 10 minutes, with the page automatically refreshed every 10 minutes)

About weather observations | Map of weather stations | Latest weather observations for NSW | Other Formats
Station Details ID: 068264 Name: JERVIS BAY AIRFIELD AWS Lat: -35.14 Lon: 150.70 Height: 57.18 m
Data from the previous 72 hours. | See also: Recent months at Jervis Bay Airfield
Date/Time
EDT
Temp
°C
App
Temp
°C
Dew
Point
°C
Rel
Hum
%
Delta-T
°C
Wind Press
QNH
hPa
Press
MSL
hPa
Rain since
9am
mm
Dir  Spd
km/h
Gust
km/h
Spd
kts
Gust
kts
29/02:00am 18.1 17.9 17.6 97 0.3 E 15 26 8 14 1020.3 1020.0 0.6
29/01:30am 18.9 17.4 16.7 87 1.3 E 20 30 11 16 1020.5 1020.2 0.2
29/01:00am 19.4 17.6 16.1 81 2.0 E 20 28 11 15 1020.9 1020.6 0.2
29/12:30am 19.5 17.8 16.2 81 2.0 ESE 20 35 11 19 1021.1 1020.8 0.2
29/12:00am 19.6 17.9 16.3 81 2.0 E 20 32 11 17 1021.4 1021.1 0.2
 
Date/Time
EDT
Temp
°C
App
Temp
°C
Dew
Point
°C
Rel
Hum
%
Delta-T
°C
Wind Press
QNH
hPa
Press
MSL
hPa
Rain since
9am
mm
Dir  Spd
km/h
Gust
km/h
Spd
kts
Gust
kts
28/11:30pm 19.5 17.7 16.0 80 2.1 ESE 20 28 11 15 1021.4 1021.1 0.2
28/11:00pm 19.3 16.2 16.5 84 1.7 ESE 28 37 15 20 1021.6 1021.3 0.2
28/10:30pm 18.7 17.3 17.0 90 1.0 ESE 20 32 11 17 1021.9 1021.6 0.2
28/10:00pm 18.4 15.8 16.0 86 1.4 ESE 24 33 13 18 1022.1 1021.9 0.0
28/09:30pm 19.3 16.5 15.4 78 2.3 ESE 24 35 13 19 1021.9 1021.6 0.0
28/09:00pm 19.4 17.0 15.3 77 2.4 ESE 22 30 12 16 1021.9 1021.6 0.0
28/08:30pm 19.4 16.5 15.1 76 2.5 ESE 24 30 13 16 1021.8 1021.5 0.0
28/08:00pm 19.5 17.4 14.7 74 2.8 ESE 19 24 10 13 1021.9 1021.6 0.0
28/07:30pm 19.5 17.9 15.0 75 2.6 ESE 17 22 9 12 1022.1 1021.9 0.0
28/07:00pm 19.7 17.7 13.9 69 3.3 SE 17 22 9 12 1022.1 1021.9 0.0
28/06:30pm 19.8 16.7 13.5 67 3.6 SE 22 28 12 15 1021.9 1021.6 0.0
28/06:00pm 20.0 17.1 13.9 68 3.5 ESE 22 28 12 15 1021.7 1021.4 0.0
28/05:30pm 19.9 17.5 14.3 70 3.3 ESE 20 28 11 15 1021.6 1021.3 0.0
28/05:00pm 19.9 18.1 14.5 71 3.1 ESE 17 22 9 12 1021.7 1021.4 0.0
28/04:30pm 19.8 18.2 14.0 69 3.4 ESE 15 19 8 10 1021.9 1021.6 0.0
28/04:00pm 19.8 17.1 13.5 67 3.6 ESE 20 32 11 17 1022.1 1021.9 0.0
28/03:30pm 20.4 18.1 14.1 67 3.7 ESE 19 28 10 15 1022.2 1022.0 0.0
28/03:00pm 20.7 17.4 12.9 61 4.4 ESE 22 30 12 16 1022.5 1022.3 0.0
28/02:30pm 20.9 17.3 13.1 61 4.5 ESE 24 32 13 17 1022.4 1022.2 0.0
28/02:00pm 21.2 17.6 14.1 64 4.1 ESE 26 37 14 20 1022.4 1022.2 0.0
28/01:30pm 21.2 17.7 14.4 65 4.0 ESE 26 37 14 20 1022.6 1022.4 0.0
28/01:00pm 22.3 19.2 14.4 61 4.6 ESE 24 35 13 19 1022.4 1022.2 0.0
28/12:30pm 21.0 17.6 13.7 63 4.2 ESE 24 33 13 18 1022.9 1022.7 0.0
28/12:00pm 20.6 17.4 13.1 62 4.3 ESE 22 30 12 16 1023.0 1022.8 0.0
28/11:30am 20.6 17.7 14.0 66 3.8 ESE 22 32 12 17 1023.2 1023.0 0.0
28/11:00am 20.3 17.2 14.4 69 3.4 ESE 24 33 13 18 1023.1 1022.9 0.0
28/10:30am 20.7 17.4 15.0 70 3.4 ESE 26 37 14 20 1022.7 1022.5 0.0
28/10:00am 20.3 16.6 14.0 67 3.6 ESE 26 35 14 19 1022.9 1022.7 0.0
28/09:30am 20.8 18.3 14.2 66 3.8 ESE 20 30 11 16 1022.6 1022.4 0.0
28/09:00am 20.2 16.9 14.1 68 3.5 ESE 24 35 13 19 1022.4 1022.2 9.8
28/08:30am 20.1 17.5 14.9 72 3.1 ESE 22 32 12 17 1022.2 1022.0 9.8
28/08:00am 19.8 16.0 14.8 73 2.9 ESE 28 37 15 20 1021.7 1021.4 9.8
28/07:30am 19.6 17.4 14.8 74 2.8 ESE 20 28 11 15 1021.7 1021.4 9.8
28/07:00am 19.6 17.2 15.3 76 2.5 ESE 22 30 12 16 1021.0 1020.7 9.8
28/06:30am 19.5 17.0 15.2 76 2.5 ESE 22 30 12 16 1020.7 1020.4 9.8
28/06:00am 19.5 17.6 15.8 79 2.2 ESE 20 30 11 16 1020.4 1020.1 9.8
28/05:30am 19.6 17.9 16.3 81 2.0 ESE 20 28 11 15 1020.0 1019.7 9.8
28/05:00am 19.5 18.3 16.0 80 2.1 SE 17 24 9 13 1019.8 1019.5 9.8
28/04:30am 19.7 17.9 16.0 79 2.2 ESE 20 28 11 15 1019.4 1019.1 9.8
28/04:00am 19.5 17.8 15.8 79 2.2 SE 19 24 10 13 1019.5 1019.2 9.8
28/03:30am 19.6 17.8 16.1 80 2.1 ESE 20 30 11 16 1019.4 1019.1 9.8
28/03:00am 19.5 17.8 16.3 82 1.9 SE 20 28 11 15 1019.6 1019.3 9.8
28/02:30am 19.7 18.0 16.2 80 2.1 SE 20 28 11 15 1019.8 1019.5 9.8
28/02:00am 19.8 18.0 15.9 78 2.3 SE 20 28 11 15 1020.0 1019.7 9.8
28/01:30am 19.7 16.8 16.2 80 2.1 ESE 26 33 14 18 1019.9 1019.6 9.8
28/01:00am 19.7 17.3 16.5 82 1.9 ESE 24 35 13 19 1019.8 1019.5 9.8
28/12:30am 19.8 17.6 17.0 84 1.7 ESE 24 33 13 18 1019.7 1019.4 9.8
28/12:00am 19.3 17.6 18.1 93 0.7 ESE 24 33 13 18 1019.8 1019.5 9.8
 
Date/Time
EDT
Temp
°C
App
Temp
°C
Dew
Point
°C
Rel
Hum
%
Delta-T
°C
Wind Press
QNH
hPa
Press
MSL
hPa
Rain since
9am
mm
Dir  Spd
km/h
Gust
km/h
Spd
kts
Gust
kts
27/11:30pm 19.9 17.8 17.1 84 1.7 ESE 24 32 13 17 1019.7 1019.4 9.8
27/11:00pm 19.9 18.1 16.9 83 1.8 ESE 22 33 12 18 1019.7 1019.4 9.8
27/10:30pm 20.0 17.9 17.2 84 1.7 ESE 24 33 13 18 1019.5 1019.2 9.8
27/10:00pm 20.0 18.3 18.0 88 1.2 ESE 24 33 13 18 1019.2 1018.9 9.8
27/09:30pm 19.7 17.4 18.4 92 0.8 ESE 28 41 15 22 1018.8 1018.6 9.8
27/09:00pm 19.4 19.1 19.1 98 0.2 ESE 19 28 10 15 1018.5 1018.3 9.8
27/08:30pm 19.6 19.2 19.3 98 0.2 SE 20 24 11 13 1018.3 1018.1 9.8
27/08:00pm 18.5 20.1 18.3 99 0.1 S 7 9 4 5 1018.0 1017.8 9.6
27/07:59pm 18.6 20.3 18.4 99 0.1 S 7 9 4 5 1018.1 1017.9 9.6
27/07:48pm 18.3 19.1 18.1 99 0.1 SE 11 19 6 10 1017.9 1017.7 9.6
27/07:30pm 18.4 19.6 18.2 99 0.1 SSE 9 15 5 8 1017.8 1017.6 8.8
27/07:00pm 17.3 16.5 17.1 99 0.1 WSW 17 24 9 13 1017.4 1017.2 7.2
27/06:30pm 18.4 18.1 18.2 99 0.1 S 17 22 9 12 1017.2 1017.0 6.2
27/06:00pm 18.6 18.7 18.4 99 0.1 SSW 15 22 8 12 1016.6 1016.4 4.0
27/05:30pm 18.0 16.9 17.7 98 0.2 SSW 20 33 11 18 1016.2 1016.0 3.4
27/05:00pm 18.1 16.6 17.8 98 0.2 SSW 22 32 12 17 1016.3 1016.1 2.0
27/04:39pm 18.4 17.1 18.1 98 0.2 SSW 22 37 12 20 1016.2 1016.0 1.6
27/04:30pm 18.5 16.8 18.2 98 0.2 SSW 24 37 13 20 1016.2 1016.0 1.4
27/04:16pm 18.9 16.4 18.1 95 0.5 S 28 39 15 21 1016.1 1015.9 1.4
27/04:00pm 19.3 16.5 17.3 88 1.2 SSW 28 39 15 21 1016.1 1015.9 1.4
27/03:30pm 19.7 17.2 17.1 85 1.6 SSW 26 39 14 21 1016.1 1015.9 1.4
27/03:00pm 19.7 16.8 17.1 85 1.6 SSW 28 39 15 21 1015.9 1015.7 1.4
27/02:30pm 19.8 17.8 17.4 86 1.5 SSW 24 35 13 19 1016.0 1015.8 1.4
27/02:00pm 19.6 17.4 17.0 85 1.6 SSW 24 41 13 22 1016.0 1015.8 1.4
27/01:30pm 19.9 17.6 17.5 86 1.5 SSW 26 41 14 22 1015.9 1015.7 1.4
27/01:20pm 19.9 17.2 17.5 86 1.5 SSW 28 43 15 23 1015.7 1015.5 1.4
27/01:10pm 20.0 16.9 17.4 85 1.6 SSW 30 39 16 21 1015.6 1015.4 1.4
27/01:00pm 20.1 17.1 17.7 86 1.5 S 30 43 16 23 1015.5 1015.3 1.4
27/12:30pm 19.3 16.7 17.8 91 0.9 SSW 28 39 15 21 1015.5 1015.3 1.4
27/12:00pm 18.9 16.5 18.2 96 0.4 SSW 28 43 15 23 1015.4 1015.2 1.4
27/11:45am 18.5 16.8 18.2 98 0.2 S 24 37 13 20 1015.3 1015.1 1.4
27/11:30am 18.2 15.3 17.9 98 0.2 S 30 44 16 24 1015.3 1015.1 1.4
27/11:00am 18.2 15.3 17.9 98 0.2 S 30 41 16 22 1014.9 1014.7 1.2
27/10:30am 18.2 16.0 17.9 98 0.2 S 26 39 14 21 1014.7 1014.5 0.8
27/10:00am 18.5 16.8 18.2 98 0.2 S 24 37 13 20 1014.1 1013.9 0.4
27/09:30am 18.7 16.4 18.4 98 0.2 S 28 39 15 21 1013.8 1013.6 0.2
27/09:00am 19.0 16.8 18.7 98 0.2 S 28 43 15 23 1013.4 1013.2 11.4
27/08:30am 19.0 16.8 18.7 98 0.2 S 28 39 15 21 1012.9 1012.7 11.4
27/08:00am 19.2 17.1 18.9 98 0.2 S 28 39 15 21 1012.4 1012.2 11.4
27/07:57am 19.2 17.1 18.9 98 0.2 S 28 39 15 21 1012.4 1012.2 11.4
27/07:54am 19.2 17.1 18.9 98 0.2 S 28 39 15 21 1012.3 1012.1 11.4
27/07:30am 18.9 17.1 18.7 99 0.1 S 26 35 14 19 1012.2 1012.0 11.4
27/07:00am 18.7 16.4 18.5 99 0.1 S 28 37 15 20 1011.5 1011.3 11.4
27/06:30am 18.7 16.4 18.5 99 0.1 S 28 37 15 20 1011.1 1010.9 11.2
27/06:00am 18.6 16.6 18.4 99 0.1 S 26 37 14 20 1010.5 1010.3 11.0
27/05:30am 18.7 16.8 18.5 99 0.1 S 26 39 14 21 1009.9 1009.7 10.2
27/05:00am 18.7 17.2 18.5 99 0.1 SSW 24 39 13 21 1009.3 1009.1 9.8
27/04:30am 18.6 16.6 18.4 99 0.1 SSW 26 37 14 20 1009.0 1008.8 9.6
27/04:00am 18.5 16.5 18.3 99 0.1 SSW 26 39 14 21 1008.8 1008.6 8.6
27/03:30am 18.5 16.1 18.3 99 0.1 SSW 28 39 15 21 1008.8 1008.6 8.0
27/03:00am 18.5 16.9 18.3 99 0.1 SSW 24 39 13 21 1008.7 1008.5 7.8
27/02:30am 18.9 17.1 18.7 99 0.1 SSW 26 41 14 22 1008.6 1008.4 7.2
27/02:00am 19.2 16.8 19.0 99 0.1 SSW 30 41 16 22 1007.9 1007.7 6.8
27/01:30am 19.7 18.6 19.5 99 0.1 SW 24 37 13 20 1008.1 1007.9 5.2
27/01:00am 19.9 19.3 19.7 99 0.1 SW 22 33 12 18 1007.8 1007.6 4.4
27/12:30am 19.9 18.5 19.7 99 0.1 SSW 26 35 14 19 1007.6 1007.4 4.4
27/12:00am 20.8 21.0 20.6 99 0.1 SSW 20 28 11 15 1007.5 1007.3 4.2
 
Date/Time
EDT
Temp
°C
App
Temp
°C
Dew
Point
°C
Rel
Hum
%
Delta-T
°C
Wind Press
QNH
hPa
Press
MSL
hPa
Rain since
9am
mm
Dir  Spd
km/h
Gust
km/h
Spd
kts
Gust
kts
26/11:30pm 21.4 21.9 21.2 99 0.1 SSW 20 32 11 17 1007.1 1006.9 4.2
26/11:14pm 21.8 22.5 21.6 99 0.1 S 20 26 11 14 1007.1 1006.9 4.2
26/11:01pm 22.0 23.0 21.8 99 0.1 SSE 19 28 10 15 1007.1 1006.9 4.2
26/11:00pm 22.0 23.4 21.8 99 0.1 SSE 17 28 9 15 1007.1 1006.9 4.2
26/10:30pm 22.2 23.1 22.0 99 0.1 SSE 20 26 11 14 1006.7 1006.4 4.2
26/10:00pm 22.3 22.9 22.1 99 0.1 SSE 22 28 12 15 1006.3 1006.0 4.2
26/09:30pm 22.3 23.3 22.1 99 0.1 S 20 26 11 14 1006.1 1005.8 4.0
26/09:27pm 22.1 23.0 21.9 99 0.1 SSE 20 26 11 14 1006.0 1005.7 4.0
26/09:00pm 22.5 22.4 22.3 99 0.1 S 26 35 14 19 1005.9 1005.6 3.4
26/08:30pm 22.7 23.8 22.4 98 0.2 SW 20 28 11 15 1005.7 1005.4 0.4
26/08:00pm 23.5 23.9 22.5 94 0.7 SSW 24 32 13 17 1004.6 1004.3 0.2
26/07:30pm 24.6 25.5 21.9 85 1.8 SSW 20 28 11 15 1003.4 1003.1 0.0
26/07:00pm 25.2 24.8 21.7 81 2.3 SW 26 35 14 19 1001.9 1001.6 0.0
26/06:48pm 25.5 28.2 22.2 82 2.2 WSW 11 24 6 13 1001.2 1000.9 0.0
26/06:30pm 25.2 25.4 21.3 79 2.6 NNE 22 32 12 17 1000.3 1000.1 0.0
26/06:00pm 24.8 26.1 21.7 83 2.1 NE 17 30 9 16 999.7 999.5 0.0
26/05:30pm 25.2 26.1 21.5 80 2.5 NNE 19 30 10 16 999.5 999.3 0.0
26/05:00pm 25.6 26.9 21.7 79 2.6 NNE 17 24 9 13 999.3 999.1 0.0
26/04:30pm 26.2 27.2 22.1 78 2.8 NNE 20 30 11 16 999.4 999.2 0.0
26/04:00pm 28.1 29.5 21.1 65 4.7 NNE 15 20 8 11 999.4 999.2 0.0
26/03:30pm 28.2 29.8 21.5 67 4.5 NE 15 19 8 10 999.4 999.2 0.0
26/03:00pm 30.8 31.2 18.2 47 8.2 NNE 13 24 7 13 999.6 999.4 0.0
26/02:30pm 34.1 32.0 14.6 31 12.1 NW 19 26 10 14 999.6 999.4 0.0
26/02:00pm 34.7 31.6 13.5 28 13.0 WNW 22 32 12 17 999.5 999.3 0.0
26/01:30pm 32.4 33.5 19.6 46 8.4 NE 13 20 7 11 999.6 999.4 0.0
26/01:00pm 30.1 32.3 20.4 56 6.5 ENE 9 20 5 11 999.8 999.6 0.0
26/12:30pm 29.3 29.2 19.9 57 6.2 NE 20 28 11 15 999.9 999.7 0.0
26/12:00pm 32.1 32.4 18.7 45 8.8 NNE 15 20 8 11 999.8 999.6 0.0
26/11:30am 35.0 30.7 14.3 29 12.8 NNW 30 43 16 23 999.7 999.5 0.0
26/11:24am 34.8 33.0 16.1 32 11.8 NNW 20 43 11 23 999.7 999.5 0.0
26/11:00am 30.6 32.0 21.1 57 6.4 N 15 20 8 11 1000.0 999.8 0.0
26/10:30am 26.9 28.5 21.4 72 3.7 NE 15 20 8 11 1000.4 1000.2 0.0
26/10:00am 27.0 28.1 21.3 71 3.8 NE 17 20 9 11 1000.6 1000.4 0.0
26/09:30am 26.9 28.7 21.9 74 3.4 NNE 15 19 8 10 1000.7 1000.5 0.0
26/09:00am 25.6 27.6 22.3 82 2.2 NNE 15 19 8 10 1001.0 1000.8 0.0
26/08:30am 24.0 25.1 22.3 90 1.1 NNE 20 24 11 13 1001.0 1000.8 0.0
26/08:00am 22.7 24.0 22.4 98 0.2 NNE 19 28 10 15 1000.9 1000.7 0.0
26/07:30am 22.1 22.2 21.8 98 0.2 NNE 24 33 13 18 1000.8 1000.6 0.0
26/07:00am 21.6 21.8 21.3 98 0.2 NNE 22 30 12 16 1000.5 1000.3 0.0
26/06:30am 21.3 20.9 21.0 98 0.2 NNE 24 32 13 17 1000.5 1000.3 0.0
26/06:00am 21.3 21.3 21.0 98 0.2 NNE 22 32 12 17 1000.3 1000.1 0.0
26/05:30am 21.3 20.9 21.0 98 0.2 NNE 24 30 13 16 1000.1 999.9 0.0
26/05:00am 21.4 21.9 21.1 98 0.2 NNE 20 30 11 16 1000.1 999.9 0.0
26/04:30am 21.5 21.3 21.2 98 0.2 NNE 24 33 13 18 1000.1 999.9 0.0
26/04:00am 21.5 20.9 21.2 98 0.2 NE 26 33 14 18 1000.4 1000.2 0.0
26/03:30am 21.6 21.4 21.3 98 0.2 NNE 24 32 13 17 1000.7 1000.5 0.0
26/03:00am 21.7 21.6 21.4 98 0.2 NNE 24 33 13 18 1001.2 1000.9 0.0
26/02:30am 21.7 21.6 21.4 98 0.2 NNE 24 32 13 17 1001.5 1001.2 0.0
26/02:09am 21.8 21.3 21.5 98 0.2 NNE 26 39 14 21 1001.8 1001.5 0.0

Other formats

Comma delimited format used in spreadsheet applications
http://www.bom.gov.au/fwo/IDN60801/IDN60801.94751.axf

JavaScript Object Notation format (JSON) in row-major order
http://www.bom.gov.au/fwo/IDN60801/IDN60801.94751.json

Data quality

Most of these data are generated automatically and are frequently updated. Quality checks on data are not normally performed. It is possible for incorrect values to appear. Refer to information at About Latest Weather Observations and please check the disclaimer before using these data.